sensor_id;sensor_type;location;lat;lon;timestamp;P1;durP1;ratioP1;P2;durP2;ratioP2
27031;SDS011;14580;52.918;9.214;2022-07-04T00:00:23;3.40;;;2.40;;
27031;SDS011;14580;52.918;9.214;2022-07-04T00:02:49;2.47;;;2.27;;
27031;SDS011;14580;52.918;9.214;2022-07-04T00:05:16;2.20;;;2.00;;
27031;SDS011;14580;52.918;9.214;2022-07-04T00:07:44;2.30;;;1.83;;
27031;SDS011;14580;52.918;9.214;2022-07-04T00:10:17;3.43;;;2.70;;
27031;SDS011;14580;52.918;9.214;2022-07-04T00:12:47;3.17;;;2.20;;
27031;SDS011;14580;52.918;9.214;2022-07-04T00:15:14;2.20;;;2.00;;
27031;SDS011;14580;52.918;9.214;2022-07-04T00:17:40;2.37;;;2.10;;
27031;SDS011;14580;52.918;9.214;2022-07-04T00:20:06;3.33;;;2.03;;
27031;SDS011;14580;52.918;9.214;2022-07-04T00:22:34;5.13;;;2.27;;
27031;SDS011;14580;52.918;9.214;2022-07-04T00:24:59;2.53;;;1.93;;
27031;SDS011;14580;52.918;9.214;2022-07-04T00:27:25;2.77;;;1.93;;
27031;SDS011;14580;52.918;9.214;2022-07-04T00:29:52;1.93;;;1.80;;
27031;SDS011;14580;52.918;9.214;2022-07-04T00:32:18;2.00;;;1.60;;
27031;SDS011;14580;52.918;9.214;2022-07-04T00:34:44;2.27;;;1.97;;
27031;SDS011;14580;52.918;9.214;2022-07-04T00:37:10;3.07;;;2.10;;
27031;SDS011;14580;52.918;9.214;2022-07-04T00:39:36;2.80;;;2.23;;
27031;SDS011;14580;52.918;9.214;2022-07-04T00:42:02;3.47;;;1.90;;
27031;SDS011;14580;52.918;9.214;2022-07-04T00:44:29;3.60;;;2.23;;
27031;SDS011;14580;52.918;9.214;2022-07-04T00:46:56;2.90;;;2.50;;
27031;SDS011;14580;52.918;9.214;2022-07-04T00:49:22;1.90;;;1.70;;
27031;SDS011;14580;52.918;9.214;2022-07-04T00:51:48;2.63;;;2.27;;
27031;SDS011;14580;52.918;9.214;2022-07-04T00:54:15;2.20;;;2.00;;
27031;SDS011;14580;52.918;9.214;2022-07-04T00:56:46;2.20;;;1.93;;
27031;SDS011;14580;52.918;9.214;2022-07-04T00:59:11;2.60;;;2.10;;
27031;SDS011;14580;52.918;9.214;2022-07-04T01:01:37;6.50;;;2.10;;
27031;SDS011;14580;52.918;9.214;2022-07-04T01:04:05;2.70;;;2.00;;
27031;SDS011;14580;52.918;9.214;2022-07-04T01:06:32;2.27;;;2.07;;
27031;SDS011;14580;52.918;9.214;2022-07-04T01:08:59;2.50;;;2.30;;
27031;SDS011;14580;52.918;9.214;2022-07-04T01:11:26;5.67;;;2.20;;
27031;SDS011;14580;52.918;9.214;2022-07-04T01:13:55;2.43;;;2.20;;
27031;SDS011;14580;52.918;9.214;2022-07-04T01:16:22;2.90;;;2.60;;
27031;SDS011;14580;52.918;9.214;2022-07-04T01:18:50;3.13;;;2.30;;
27031;SDS011;14580;52.918;9.214;2022-07-04T01:21:17;3.23;;;2.17;;
27031;SDS011;14580;52.918;9.214;2022-07-04T01:23:44;2.70;;;2.30;;
27031;SDS011;14580;52.918;9.214;2022-07-04T01:26:10;2.47;;;2.27;;
27031;SDS011;14580;52.918;9.214;2022-07-04T01:28:36;3.70;;;2.30;;
27031;SDS011;14580;52.918;9.214;2022-07-04T01:31:03;3.47;;;2.30;;
27031;SDS011;14580;52.918;9.214;2022-07-04T01:33:30;2.20;;;2.00;;
27031;SDS011;14580;52.918;9.214;2022-07-04T01:35:56;5.40;;;2.40;;
27031;SDS011;14580;52.918;9.214;2022-07-04T01:38:22;4.23;;;2.50;;
27031;SDS011;14580;52.918;9.214;2022-07-04T01:40:48;4.37;;;2.70;;
27031;SDS011;14580;52.918;9.214;2022-07-04T01:43:14;3.47;;;2.57;;
27031;SDS011;14580;52.918;9.214;2022-07-04T01:45:40;5.10;;;2.90;;
27031;SDS011;14580;52.918;9.214;2022-07-04T01:48:06;4.57;;;2.77;;
27031;SDS011;14580;52.918;9.214;2022-07-04T01:50:34;3.17;;;2.20;;
27031;SDS011;14580;52.918;9.214;2022-07-04T01:53:01;2.77;;;2.57;;
27031;SDS011;14580;52.918;9.214;2022-07-04T01:55:27;3.57;;;2.80;;
27031;SDS011;14580;52.918;9.214;2022-07-04T01:57:54;2.60;;;2.40;;
27031;SDS011;14580;52.918;9.214;2022-07-04T02:00:21;3.93;;;2.70;;
27031;SDS011;14580;52.918;9.214;2022-07-04T02:03:05;3.87;;;2.90;;
27031;SDS011;14580;52.918;9.214;2022-07-04T02:05:31;3.37;;;2.67;;
27031;SDS011;14580;52.918;9.214;2022-07-04T02:07:58;2.90;;;2.60;;
27031;SDS011;14580;52.918;9.214;2022-07-04T02:10:24;3.57;;;3.23;;
27031;SDS011;14580;52.918;9.214;2022-07-04T02:12:50;3.33;;;2.90;;
27031;SDS011;14580;52.918;9.214;2022-07-04T02:15:33;4.00;;;3.20;;
27031;SDS011;14580;52.918;9.214;2022-07-04T02:18:04;6.00;;;3.23;;
27031;SDS011;14580;52.918;9.214;2022-07-04T02:20:32;4.20;;;3.50;;
27031;SDS011;14580;52.918;9.214;2022-07-04T02:22:59;3.50;;;3.17;;
27031;SDS011;14580;52.918;9.214;2022-07-04T02:25:25;5.53;;;3.20;;
27031;SDS011;14580;52.918;9.214;2022-07-04T02:27:51;4.73;;;3.17;;
27031;SDS011;14580;52.918;9.214;2022-07-04T02:30:17;3.60;;;3.23;;
27031;SDS011;14580;52.918;9.214;2022-07-04T02:32:43;6.93;;;4.23;;
27031;SDS011;14580;52.918;9.214;2022-07-04T02:35:09;4.87;;;3.47;;
27031;SDS011;14580;52.918;9.214;2022-07-04T02:37:35;8.87;;;3.17;;
27031;SDS011;14580;52.918;9.214;2022-07-04T02:40:02;5.70;;;3.20;;
27031;SDS011;14580;52.918;9.214;2022-07-04T02:42:30;5.10;;;3.30;;
27031;SDS011;14580;52.918;9.214;2022-07-04T02:44:57;4.27;;;3.57;;
27031;SDS011;14580;52.918;9.214;2022-07-04T02:47:23;3.57;;;3.27;;
27031;SDS011;14580;52.918;9.214;2022-07-04T02:49:49;3.70;;;3.37;;
27031;SDS011;14580;52.918;9.214;2022-07-04T02:52:14;3.77;;;3.47;;
27031;SDS011;14580;52.918;9.214;2022-07-04T02:54:40;3.53;;;3.23;;
27031;SDS011;14580;52.918;9.214;2022-07-04T02:57:07;4.47;;;3.67;;
27031;SDS011;14580;52.918;9.214;2022-07-04T02:59:33;5.63;;;3.80;;
27031;SDS011;14580;52.918;9.214;2022-07-04T03:01:59;5.23;;;3.97;;
27031;SDS011;14580;52.918;9.214;2022-07-04T03:04:25;4.77;;;4.03;;
27031;SDS011;14580;52.918;9.214;2022-07-04T03:06:51;4.20;;;3.80;;
27031;SDS011;14580;52.918;9.214;2022-07-04T03:09:17;4.20;;;3.80;;
27031;SDS011;14580;52.918;9.214;2022-07-04T03:11:43;4.47;;;3.67;;
27031;SDS011;14580;52.918;9.214;2022-07-04T03:14:10;4.33;;;3.93;;
27031;SDS011;14580;52.918;9.214;2022-07-04T03:16:36;5.03;;;3.97;;
27031;SDS011;14580;52.918;9.214;2022-07-04T03:19:02;5.63;;;4.40;;
27031;SDS011;14580;52.918;9.214;2022-07-04T03:21:28;5.20;;;4.00;;
27031;SDS011;14580;52.918;9.214;2022-07-04T03:23:54;6.10;;;4.43;;
27031;SDS011;14580;52.918;9.214;2022-07-04T03:26:26;4.50;;;4.07;;
27031;SDS011;14580;52.918;9.214;2022-07-04T03:28:57;6.53;;;4.00;;
27031;SDS011;14580;52.918;9.214;2022-07-04T03:31:24;5.10;;;4.17;;
27031;SDS011;14580;52.918;9.214;2022-07-04T03:33:51;6.23;;;4.30;;
27031;SDS011;14580;52.918;9.214;2022-07-04T03:36:18;5.63;;;4.13;;
27031;SDS011;14580;52.918;9.214;2022-07-04T03:38:44;6.90;;;5.30;;
27031;SDS011;14580;52.918;9.214;2022-07-04T03:41:11;5.73;;;4.60;;
27031;SDS011;14580;52.918;9.214;2022-07-04T03:43:37;5.83;;;5.00;;
27031;SDS011;14580;52.918;9.214;2022-07-04T03:46:03;5.23;;;4.73;;
27031;SDS011;14580;52.918;9.214;2022-07-04T03:48:29;8.73;;;5.00;;
27031;SDS011;14580;52.918;9.214;2022-07-04T03:50:55;6.00;;;5.30;;
27031;SDS011;14580;52.918;9.214;2022-07-04T03:53:21;6.23;;;5.03;;
27031;SDS011;14580;52.918;9.214;2022-07-04T03:55:47;6.53;;;5.10;;
27031;SDS011;14580;52.918;9.214;2022-07-04T03:58:13;7.87;;;5.53;;
27031;SDS011;14580;52.918;9.214;2022-07-04T04:00:39;6.40;;;5.50;;
27031;SDS011;14580;52.918;9.214;2022-07-04T04:03:06;6.70;;;5.77;;
27031;SDS011;14580;52.918;9.214;2022-07-04T04:05:54;6.40;;;5.47;;
27031;SDS011;14580;52.918;9.214;2022-07-04T04:08:21;6.57;;;5.47;;
27031;SDS011;14580;52.918;9.214;2022-07-04T04:10:47;6.13;;;5.53;;
27031;SDS011;14580;52.918;9.214;2022-07-04T04:13:16;7.80;;;6.17;;
27031;SDS011;14580;52.918;9.214;2022-07-04T04:15:42;7.73;;;5.67;;
27031;SDS011;14580;52.918;9.214;2022-07-04T04:18:07;11.13;;;5.40;;
27031;SDS011;14580;52.918;9.214;2022-07-04T04:20:33;6.30;;;5.47;;
27031;SDS011;14580;52.918;9.214;2022-07-04T04:22:59;7.47;;;5.77;;
27031;SDS011;14580;52.918;9.214;2022-07-04T04:25:25;6.10;;;5.47;;
27031;SDS011;14580;52.918;9.214;2022-07-04T04:27:51;10.33;;;5.73;;
27031;SDS011;14580;52.918;9.214;2022-07-04T04:30:17;9.40;;;5.80;;
27031;SDS011;14580;52.918;9.214;2022-07-04T04:32:42;10.30;;;6.07;;
27031;SDS011;14580;52.918;9.214;2022-07-04T04:35:08;6.57;;;5.77;;
27031;SDS011;14580;52.918;9.214;2022-07-04T04:37:34;6.73;;;6.03;;
27031;SDS011;14580;52.918;9.214;2022-07-04T04:40:00;7.50;;;5.57;;
27031;SDS011;14580;52.918;9.214;2022-07-04T04:42:26;9.30;;;6.77;;
27031;SDS011;14580;52.918;9.214;2022-07-04T04:44:51;7.60;;;5.67;;
27031;SDS011;14580;52.918;9.214;2022-07-04T04:47:17;9.90;;;6.33;;
27031;SDS011;14580;52.918;9.214;2022-07-04T04:49:43;8.80;;;6.60;;
27031;SDS011;14580;52.918;9.214;2022-07-04T04:52:09;7.47;;;5.83;;
27031;SDS011;14580;52.918;9.214;2022-07-04T04:54:36;12.57;;;6.43;;
27031;SDS011;14580;52.918;9.214;2022-07-04T04:57:02;14.87;;;7.00;;
27031;SDS011;14580;52.918;9.214;2022-07-04T04:59:29;9.13;;;6.60;;
27031;SDS011;14580;52.918;9.214;2022-07-04T05:01:56;8.80;;;5.87;;
27031;SDS011;14580;52.918;9.214;2022-07-04T05:04:22;9.73;;;6.83;;
27031;SDS011;14580;52.918;9.214;2022-07-04T05:06:48;12.70;;;6.40;;
27031;SDS011;14580;52.918;9.214;2022-07-04T05:09:14;11.23;;;6.53;;
27031;SDS011;14580;52.918;9.214;2022-07-04T05:11:40;8.80;;;6.63;;
27031;SDS011;14580;52.918;9.214;2022-07-04T05:14:06;7.73;;;6.40;;
27031;SDS011;14580;52.918;9.214;2022-07-04T05:16:32;10.77;;;7.10;;
27031;SDS011;14580;52.918;9.214;2022-07-04T05:18:57;9.30;;;6.30;;
27031;SDS011;14580;52.918;9.214;2022-07-04T05:21:23;6.70;;;5.93;;
27031;SDS011;14580;52.918;9.214;2022-07-04T05:23:51;6.37;;;5.70;;
27031;SDS011;14580;52.918;9.214;2022-07-04T05:26:18;7.73;;;6.17;;
27031;SDS011;14580;52.918;9.214;2022-07-04T05:28:44;8.57;;;6.17;;
27031;SDS011;14580;52.918;9.214;2022-07-04T05:31:09;7.10;;;5.77;;
27031;SDS011;14580;52.918;9.214;2022-07-04T05:33:35;8.83;;;5.73;;
27031;SDS011;14580;52.918;9.214;2022-07-04T05:36:01;11.53;;;6.33;;
27031;SDS011;14580;52.918;9.214;2022-07-04T05:38:27;6.77;;;5.30;;
27031;SDS011;14580;52.918;9.214;2022-07-04T05:40:53;6.80;;;5.07;;
27031;SDS011;14580;52.918;9.214;2022-07-04T05:43:19;5.50;;;4.90;;
27031;SDS011;14580;52.918;9.214;2022-07-04T05:45:46;6.37;;;5.13;;
27031;SDS011;14580;52.918;9.214;2022-07-04T05:48:13;5.67;;;4.83;;
27031;SDS011;14580;52.918;9.214;2022-07-04T05:50:40;7.10;;;5.27;;
27031;SDS011;14580;52.918;9.214;2022-07-04T05:53:06;7.60;;;5.13;;
27031;SDS011;14580;52.918;9.214;2022-07-04T05:55:31;8.63;;;4.80;;
27031;SDS011;14580;52.918;9.214;2022-07-04T05:57:59;5.53;;;4.47;;
27031;SDS011;14580;52.918;9.214;2022-07-04T06:00:25;6.03;;;4.30;;
27031;SDS011;14580;52.918;9.214;2022-07-04T06:02:51;5.60;;;4.67;;
27031;SDS011;14580;52.918;9.214;2022-07-04T06:05:17;6.03;;;4.33;;
27031;SDS011;14580;52.918;9.214;2022-07-04T06:07:43;5.10;;;3.77;;
27031;SDS011;14580;52.918;9.214;2022-07-04T06:10:08;5.47;;;3.27;;
27031;SDS011;14580;52.918;9.214;2022-07-04T06:12:35;7.60;;;4.43;;
27031;SDS011;14580;52.918;9.214;2022-07-04T06:15:01;6.40;;;3.50;;
27031;SDS011;14580;52.918;9.214;2022-07-04T06:17:27;7.33;;;3.70;;
27031;SDS011;14580;52.918;9.214;2022-07-04T06:19:53;7.03;;;3.40;;
27031;SDS011;14580;52.918;9.214;2022-07-04T06:22:19;4.20;;;2.73;;
27031;SDS011;14580;52.918;9.214;2022-07-04T06:24:45;7.87;;;3.00;;
27031;SDS011;14580;52.918;9.214;2022-07-04T06:27:11;3.83;;;2.67;;
27031;SDS011;14580;52.918;9.214;2022-07-04T06:29:36;4.43;;;2.60;;
27031;SDS011;14580;52.918;9.214;2022-07-04T06:32:02;2.40;;;2.00;;
27031;SDS011;14580;52.918;9.214;2022-07-04T06:34:31;3.70;;;2.50;;
27031;SDS011;14580;52.918;9.214;2022-07-04T06:37:16;4.77;;;2.33;;
27031;SDS011;14580;52.918;9.214;2022-07-04T06:39:42;3.77;;;2.10;;
27031;SDS011;14580;52.918;9.214;2022-07-04T06:42:08;4.03;;;2.00;;
27031;SDS011;14580;52.918;9.214;2022-07-04T06:44:34;5.33;;;2.20;;
27031;SDS011;14580;52.918;9.214;2022-07-04T06:47:00;4.70;;;2.10;;
27031;SDS011;14580;52.918;9.214;2022-07-04T06:49:26;2.20;;;1.80;;
27031;SDS011;14580;52.918;9.214;2022-07-04T06:51:52;3.47;;;1.77;;
27031;SDS011;14580;52.918;9.214;2022-07-04T06:54:18;4.67;;;1.67;;
27031;SDS011;14580;52.918;9.214;2022-07-04T06:56:44;4.27;;;1.97;;
27031;SDS011;14580;52.918;9.214;2022-07-04T06:59:09;4.23;;;1.97;;
27031;SDS011;14580;52.918;9.214;2022-07-04T07:01:35;3.10;;;1.60;;
27031;SDS011;14580;52.918;9.214;2022-07-04T07:04:01;5.93;;;1.70;;
27031;SDS011;14580;52.918;9.214;2022-07-04T07:06:27;3.10;;;1.60;;
27031;SDS011;14580;52.918;9.214;2022-07-04T07:08:52;3.07;;;1.40;;
27031;SDS011;14580;52.918;9.214;2022-07-04T07:11:18;2.77;;;1.47;;
27031;SDS011;14580;52.918;9.214;2022-07-04T07:13:46;2.80;;;1.50;;
27031;SDS011;14580;52.918;9.214;2022-07-04T07:16:15;2.37;;;1.50;;
27031;SDS011;14580;52.918;9.214;2022-07-04T07:18:41;2.07;;;1.23;;
27031;SDS011;14580;52.918;9.214;2022-07-04T07:21:07;3.27;;;1.37;;
27031;SDS011;14580;52.918;9.214;2022-07-04T07:23:33;1.90;;;1.33;;
27031;SDS011;14580;52.918;9.214;2022-07-04T07:26:02;2.07;;;1.20;;
27031;SDS011;14580;52.918;9.214;2022-07-04T07:28:28;2.30;;;0.90;;
27031;SDS011;14580;52.918;9.214;2022-07-04T07:30:54;3.37;;;1.03;;
27031;SDS011;14580;52.918;9.214;2022-07-04T07:33:20;8.30;;;1.27;;
27031;SDS011;14580;52.918;9.214;2022-07-04T07:35:45;3.93;;;1.40;;
27031;SDS011;14580;52.918;9.214;2022-07-04T07:38:11;1.90;;;1.57;;
27031;SDS011;14580;52.918;9.214;2022-07-04T07:40:37;2.90;;;1.00;;
27031;SDS011;14580;52.918;9.214;2022-07-04T07:43:03;2.70;;;1.30;;
27031;SDS011;14580;52.918;9.214;2022-07-04T07:45:28;3.57;;;1.00;;
27031;SDS011;14580;52.918;9.214;2022-07-04T07:47:54;4.27;;;1.10;;
27031;SDS011;14580;52.918;9.214;2022-07-04T07:50:20;5.50;;;1.00;;
27031;SDS011;14580;52.918;9.214;2022-07-04T07:52:46;1.80;;;1.10;;
27031;SDS011;14580;52.918;9.214;2022-07-04T07:55:11;2.77;;;1.23;;
27031;SDS011;14580;52.918;9.214;2022-07-04T07:57:37;2.57;;;1.10;;
27031;SDS011;14580;52.918;9.214;2022-07-04T08:00:03;3.40;;;1.20;;
27031;SDS011;14580;52.918;9.214;2022-07-04T08:02:30;2.33;;;1.40;;
27031;SDS011;14580;52.918;9.214;2022-07-04T08:05:15;1.53;;;0.97;;
27031;SDS011;14580;52.918;9.214;2022-07-04T08:07:41;1.50;;;1.00;;
27031;SDS011;14580;52.918;9.214;2022-07-04T08:10:07;1.27;;;1.17;;
27031;SDS011;14580;52.918;9.214;2022-07-04T08:12:33;2.37;;;1.13;;
27031;SDS011;14580;52.918;9.214;2022-07-04T08:15:00;1.60;;;0.70;;
27031;SDS011;14580;52.918;9.214;2022-07-04T08:17:26;3.37;;;1.03;;
27031;SDS011;14580;52.918;9.214;2022-07-04T08:19:53;1.30;;;1.20;;
27031;SDS011;14580;52.918;9.214;2022-07-04T08:22:19;3.20;;;1.20;;
27031;SDS011;14580;52.918;9.214;2022-07-04T08:24:44;4.80;;;1.10;;
27031;SDS011;14580;52.918;9.214;2022-07-04T08:27:11;1.53;;;0.90;;
27031;SDS011;14580;52.918;9.214;2022-07-04T08:29:38;3.47;;;1.27;;
27031;SDS011;14580;52.918;9.214;2022-07-04T08:32:04;2.97;;;1.00;;
27031;SDS011;14580;52.918;9.214;2022-07-04T08:34:32;2.30;;;1.07;;
27031;SDS011;14580;52.918;9.214;2022-07-04T08:36:59;3.57;;;1.00;;
27031;SDS011;14580;52.918;9.214;2022-07-04T08:39:26;1.40;;;1.17;;
27031;SDS011;14580;52.918;9.214;2022-07-04T08:41:52;4.00;;;1.10;;
27031;SDS011;14580;52.918;9.214;2022-07-04T08:44:25;4.43;;;1.27;;
27031;SDS011;14580;52.918;9.214;2022-07-04T08:46:53;2.10;;;1.13;;
27031;SDS011;14580;52.918;9.214;2022-07-04T08:49:23;2.77;;;1.10;;
27031;SDS011;14580;52.918;9.214;2022-07-04T08:51:59;4.57;;;1.03;;
27031;SDS011;14580;52.918;9.214;2022-07-04T08:54:30;3.03;;;1.57;;
27031;SDS011;14580;52.918;9.214;2022-07-04T08:57:16;2.47;;;1.30;;
27031;SDS011;14580;52.918;9.214;2022-07-04T09:00:02;1.63;;;1.20;;
27031;SDS011;14580;52.918;9.214;2022-07-04T09:02:29;0.90;;;0.90;;
27031;SDS011;14580;52.918;9.214;2022-07-04T09:04:57;1.67;;;1.00;;
27031;SDS011;14580;52.918;9.214;2022-07-04T09:07:26;3.03;;;1.40;;
27031;SDS011;14580;52.918;9.214;2022-07-04T09:09:53;1.40;;;1.00;;
27031;SDS011;14580;52.918;9.214;2022-07-04T09:12:21;1.77;;;1.00;;
27031;SDS011;14580;52.918;9.214;2022-07-04T09:14:47;1.10;;;0.80;;
27031;SDS011;14580;52.918;9.214;2022-07-04T09:17:14;1.60;;;1.13;;
27031;SDS011;14580;52.918;9.214;2022-07-04T09:19:40;1.43;;;1.20;;
27031;SDS011;14580;52.918;9.214;2022-07-04T09:22:08;3.53;;;1.20;;
27031;SDS011;14580;52.918;9.214;2022-07-04T09:24:47;3.43;;;1.10;;
27031;SDS011;14580;52.918;9.214;2022-07-04T09:27:32;1.10;;;1.00;;
27031;SDS011;14580;52.918;9.214;2022-07-04T09:30:04;1.60;;;0.90;;
27031;SDS011;14580;52.918;9.214;2022-07-04T09:32:45;0.87;;;0.87;;
27031;SDS011;14580;52.918;9.214;2022-07-04T09:35:24;2.17;;;1.30;;
27031;SDS011;14580;52.918;9.214;2022-07-04T09:37:55;2.23;;;1.00;;
27031;SDS011;14580;52.918;9.214;2022-07-04T09:43:19;2.30;;;1.17;;
27031;SDS011;14580;52.918;9.214;2022-07-04T09:45:55;1.90;;;1.00;;
27031;SDS011;14580;52.918;9.214;2022-07-04T09:51:14;2.03;;;1.20;;
27031;SDS011;14580;52.918;9.214;2022-07-04T09:53:59;2.27;;;1.00;;
27031;SDS011;14580;52.918;9.214;2022-07-04T09:56:59;3.60;;;1.10;;
27031;SDS011;14580;52.918;9.214;2022-07-04T09:59:27;1.93;;;0.97;;
27031;SDS011;14580;52.918;9.214;2022-07-04T10:02:07;1.33;;;0.90;;
27031;SDS011;14580;52.918;9.214;2022-07-04T10:04:46;1.83;;;1.10;;
27031;SDS011;14580;52.918;9.214;2022-07-04T10:07:29;1.23;;;0.80;;
27031;SDS011;14580;52.918;9.214;2022-07-04T10:10:01;1.83;;;1.20;;
27031;SDS011;14580;52.918;9.214;2022-07-04T10:12:49;1.73;;;1.00;;
27031;SDS011;14580;52.918;9.214;2022-07-04T10:15:19;2.77;;;1.10;;
27031;SDS011;14580;52.918;9.214;2022-07-04T10:17:45;1.20;;;0.90;;
27031;SDS011;14580;52.918;9.214;2022-07-04T10:20:12;2.83;;;1.00;;
27031;SDS011;14580;52.918;9.214;2022-07-04T10:22:39;2.07;;;0.90;;
27031;SDS011;14580;52.918;9.214;2022-07-04T10:25:05;4.00;;;1.47;;
27031;SDS011;14580;52.918;9.214;2022-07-04T10:27:33;1.57;;;0.90;;
27031;SDS011;14580;52.918;9.214;2022-07-04T10:29:59;1.47;;;1.03;;
27031;SDS011;14580;52.918;9.214;2022-07-04T10:32:28;2.20;;;0.90;;
27031;SDS011;14580;52.918;9.214;2022-07-04T10:34:55;0.97;;;0.87;;
27031;SDS011;14580;52.918;9.214;2022-07-04T10:37:21;1.40;;;1.07;;
27031;SDS011;14580;52.918;9.214;2022-07-04T10:39:47;0.80;;;0.80;;
27031;SDS011;14580;52.918;9.214;2022-07-04T10:42:23;2.70;;;1.63;;
27031;SDS011;14580;52.918;9.214;2022-07-04T10:44:54;3.40;;;1.10;;
27031;SDS011;14580;52.918;9.214;2022-07-04T10:47:26;1.53;;;1.07;;
27031;SDS011;14580;52.918;9.214;2022-07-04T10:49:54;1.70;;;0.80;;
27031;SDS011;14580;52.918;9.214;2022-07-04T10:52:21;1.20;;;0.97;;
27031;SDS011;14580;52.918;9.214;2022-07-04T10:54:47;3.53;;;0.90;;
27031;SDS011;14580;52.918;9.214;2022-07-04T10:57:16;2.57;;;1.07;;
27031;SDS011;14580;52.918;9.214;2022-07-04T11:02:22;3.83;;;1.23;;
27031;SDS011;14580;52.918;9.214;2022-07-04T11:18:01;2.83;;;1.20;;
27031;SDS011;14580;52.918;9.214;2022-07-04T11:20:35;2.37;;;1.10;;
27031;SDS011;14580;52.918;9.214;2022-07-04T11:23:06;2.07;;;0.90;;
27031;SDS011;14580;52.918;9.214;2022-07-04T11:25:39;2.77;;;0.90;;
27031;SDS011;14580;52.918;9.214;2022-07-04T11:30:48;1.80;;;1.10;;
27031;SDS011;14580;52.918;9.214;2022-07-04T11:33:22;3.03;;;1.10;;
27031;SDS011;14580;52.918;9.214;2022-07-04T11:36:07;2.53;;;1.00;;
27031;SDS011;14580;52.918;9.214;2022-07-04T11:38:44;1.53;;;0.83;;
27031;SDS011;14580;52.918;9.214;2022-07-04T11:41:23;2.27;;;1.07;;
27031;SDS011;14580;52.918;9.214;2022-07-04T11:44:19;2.73;;;1.27;;
27031;SDS011;14580;52.918;9.214;2022-07-04T11:52:25;1.03;;;0.90;;
27031;SDS011;14580;52.918;9.214;2022-07-04T11:54:56;5.83;;;1.20;;
27031;SDS011;14580;52.918;9.214;2022-07-04T12:00:00;0.90;;;0.90;;
27031;SDS011;14580;52.918;9.214;2022-07-04T12:02:33;3.23;;;1.00;;
27031;SDS011;14580;52.918;9.214;2022-07-04T12:05:00;1.40;;;1.00;;
27031;SDS011;14580;52.918;9.214;2022-07-04T12:07:28;0.90;;;0.90;;
27031;SDS011;14580;52.918;9.214;2022-07-04T12:10:13;1.07;;;1.00;;
27031;SDS011;14580;52.918;9.214;2022-07-04T12:12:52;1.40;;;1.20;;
27031;SDS011;14580;52.918;9.214;2022-07-04T12:15:21;2.23;;;1.07;;
27031;SDS011;14580;52.918;9.214;2022-07-04T12:17:52;2.03;;;1.07;;
27031;SDS011;14580;52.918;9.214;2022-07-04T12:20:20;1.73;;;1.10;;
27031;SDS011;14580;52.918;9.214;2022-07-04T12:25:23;3.47;;;1.17;;
27031;SDS011;14580;52.918;9.214;2022-07-04T12:28:06;1.70;;;1.03;;
27031;SDS011;14580;52.918;9.214;2022-07-04T12:30:33;2.33;;;1.10;;
27031;SDS011;14580;52.918;9.214;2022-07-04T12:33:05;1.17;;;1.00;;
27031;SDS011;14580;52.918;9.214;2022-07-04T12:35:45;1.80;;;1.20;;
27031;SDS011;14580;52.918;9.214;2022-07-04T12:40:53;1.60;;;0.90;;
27031;SDS011;14580;52.918;9.214;2022-07-04T12:46:10;2.53;;;1.13;;
27031;SDS011;14580;52.918;9.214;2022-07-04T12:48:37;1.33;;;1.00;;
27031;SDS011;14580;52.918;9.214;2022-07-04T12:53:45;3.43;;;1.20;;
27031;SDS011;14580;52.918;9.214;2022-07-04T12:58:58;1.20;;;1.10;;
27031;SDS011;14580;52.918;9.214;2022-07-04T13:01:29;1.13;;;1.00;;
27031;SDS011;14580;52.918;9.214;2022-07-04T13:03:55;3.17;;;1.30;;
27031;SDS011;14580;52.918;9.214;2022-07-04T13:06:22;2.27;;;1.00;;
27031;SDS011;14580;52.918;9.214;2022-07-04T13:08:48;3.33;;;1.00;;
27031;SDS011;14580;52.918;9.214;2022-07-04T13:11:14;1.27;;;1.10;;
27031;SDS011;14580;52.918;9.214;2022-07-04T13:13:59;1.97;;;1.17;;
27031;SDS011;14580;52.918;9.214;2022-07-04T13:16:25;1.10;;;1.00;;
27031;SDS011;14580;52.918;9.214;2022-07-04T13:18:50;1.10;;;1.00;;
27031;SDS011;14580;52.918;9.214;2022-07-04T13:21:16;2.50;;;1.00;;
27031;SDS011;14580;52.918;9.214;2022-07-04T13:23:42;3.33;;;1.27;;
27031;SDS011;14580;52.918;9.214;2022-07-04T13:26:08;2.90;;;1.30;;
27031;SDS011;14580;52.918;9.214;2022-07-04T13:28:34;1.53;;;1.00;;
27031;SDS011;14580;52.918;9.214;2022-07-04T13:31:00;2.00;;;1.10;;
27031;SDS011;14580;52.918;9.214;2022-07-04T13:33:29;1.37;;;1.23;;
27031;SDS011;14580;52.918;9.214;2022-07-04T13:35:55;2.03;;;1.00;;
27031;SDS011;14580;52.918;9.214;2022-07-04T13:38:22;1.97;;;1.10;;
27031;SDS011;14580;52.918;9.214;2022-07-04T13:40:48;3.87;;;1.20;;
27031;SDS011;14580;52.918;9.214;2022-07-04T13:43:13;3.37;;;1.30;;
27031;SDS011;14580;52.918;9.214;2022-07-04T13:45:40;1.63;;;1.10;;
27031;SDS011;14580;52.918;9.214;2022-07-04T13:48:09;1.93;;;1.40;;
27031;SDS011;14580;52.918;9.214;2022-07-04T13:50:35;3.07;;;1.20;;
27031;SDS011;14580;52.918;9.214;2022-07-04T13:53:05;3.40;;;1.37;;
27031;SDS011;14580;52.918;9.214;2022-07-04T13:55:33;3.90;;;1.30;;
27031;SDS011;14580;52.918;9.214;2022-07-04T13:58:06;4.67;;;1.43;;
27031;SDS011;14580;52.918;9.214;2022-07-04T14:00:33;2.67;;;1.03;;
27031;SDS011;14580;52.918;9.214;2022-07-04T14:03:00;1.53;;;1.20;;
27031;SDS011;14580;52.918;9.214;2022-07-04T14:05:26;2.13;;;1.23;;
27031;SDS011;14580;52.918;9.214;2022-07-04T14:07:53;1.57;;;1.47;;
27031;SDS011;14580;52.918;9.214;2022-07-04T14:10:19;2.30;;;1.93;;
27031;SDS011;14580;52.918;9.214;2022-07-04T14:12:45;2.30;;;1.20;;
27031;SDS011;14580;52.918;9.214;2022-07-04T14:15:11;1.20;;;1.10;;
27031;SDS011;14580;52.918;9.214;2022-07-04T14:17:37;2.83;;;1.23;;
27031;SDS011;14580;52.918;9.214;2022-07-04T14:20:04;3.17;;;1.10;;
27031;SDS011;14580;52.918;9.214;2022-07-04T14:22:33;2.17;;;1.13;;
27031;SDS011;14580;52.918;9.214;2022-07-04T14:25:00;1.40;;;1.10;;
27031;SDS011;14580;52.918;9.214;2022-07-04T14:27:25;3.63;;;1.43;;
27031;SDS011;14580;52.918;9.214;2022-07-04T14:29:51;3.20;;;1.40;;
27031;SDS011;14580;52.918;9.214;2022-07-04T14:32:17;2.00;;;1.07;;
27031;SDS011;14580;52.918;9.214;2022-07-04T14:34:43;4.33;;;2.40;;
27031;SDS011;14580;52.918;9.214;2022-07-04T14:37:09;1.47;;;1.30;;
27031;SDS011;14580;52.918;9.214;2022-07-04T14:39:34;3.70;;;1.40;;
27031;SDS011;14580;52.918;9.214;2022-07-04T14:42:00;3.60;;;1.60;;
27031;SDS011;14580;52.918;9.214;2022-07-04T14:44:26;4.17;;;1.43;;
27031;SDS011;14580;52.918;9.214;2022-07-04T14:46:53;1.43;;;1.30;;
27031;SDS011;14580;52.918;9.214;2022-07-04T14:49:19;2.57;;;1.40;;
27031;SDS011;14580;52.918;9.214;2022-07-04T14:51:45;2.97;;;1.33;;
27031;SDS011;14580;52.918;9.214;2022-07-04T14:54:11;13.10;;;2.03;;
27031;SDS011;14580;52.918;9.214;2022-07-04T14:56:37;2.53;;;1.60;;
27031;SDS011;14580;52.918;9.214;2022-07-04T14:59:03;1.90;;;1.43;;
27031;SDS011;14580;52.918;9.214;2022-07-04T15:01:29;2.53;;;1.50;;
27031;SDS011;14580;52.918;9.214;2022-07-04T15:03:55;1.63;;;1.40;;
27031;SDS011;14580;52.918;9.214;2022-07-04T15:06:21;2.73;;;1.40;;
27031;SDS011;14580;52.918;9.214;2022-07-04T15:08:47;3.17;;;1.40;;
27031;SDS011;14580;52.918;9.214;2022-07-04T15:11:13;1.93;;;1.13;;
27031;SDS011;14580;52.918;9.214;2022-07-04T15:13:39;9.47;;;1.47;;
27031;SDS011;14580;52.918;9.214;2022-07-04T15:16:05;4.30;;;1.63;;
27031;SDS011;14580;52.918;9.214;2022-07-04T15:18:31;3.90;;;1.30;;
27031;SDS011;14580;52.918;9.214;2022-07-04T15:20:57;2.63;;;1.33;;
27031;SDS011;14580;52.918;9.214;2022-07-04T15:23:43;1.57;;;1.30;;
27031;SDS011;14580;52.918;9.214;2022-07-04T15:26:28;1.83;;;1.40;;
27031;SDS011;14580;52.918;9.214;2022-07-04T15:28:53;3.57;;;1.30;;
27031;SDS011;14580;52.918;9.214;2022-07-04T15:31:19;2.27;;;1.60;;
27031;SDS011;14580;52.918;9.214;2022-07-04T15:33:45;4.77;;;1.53;;
27031;SDS011;14580;52.918;9.214;2022-07-04T15:36:11;3.80;;;1.67;;
27031;SDS011;14580;52.918;9.214;2022-07-04T15:38:37;1.43;;;1.30;;